San Antonio, Texas
Traffic Map
Current Weather Conditions
San Antonio, Texas
Clear
Clear
20°
Feels Like: 20°
Wind Chill: 20° Ceiling: Unl
Heat Index: 20° Visibility: 10mi
Dew Point: Wind: 8mph
Humidity: 39% Direction: 150° (SSE)
Pressure: 30.06in Gusts: 0mph
Raw Report DataKSKF 282358Z AUTO 15007KT 10SM CLR 20/06 A3006 RMK AO2 SLP178 T02030059 10259 20203 56006 $
Traffic Incident Summary
Active as of:
Severity:
Category:
InformationThere was an issue retrieving the traffic information for this location. Please try a different location or try again shortly.
Advertisements
Track Severe Weather on mobile